createdAt,value
2023-05-12T00:00:59.261Z,76.11
2023-05-12T00:04:20.860Z,76.59
2023-05-12T00:07:44.739Z,76.73
2023-05-12T00:11:06.486Z,76.52
2023-05-12T00:14:28.117Z,77.94
2023-05-12T00:17:49.901Z,78.29
2023-05-12T00:21:12.786Z,78.51
2023-05-12T00:24:34.418Z,78.58
2023-05-12T00:27:58.515Z,79.07
2023-05-12T00:31:22.353Z,79.84
2023-05-12T00:34:46.234Z,78.65
2023-05-12T00:38:10.471Z,78.64
2023-05-12T00:41:34.564Z,78.72
2023-05-12T00:45:00.710Z,79.39
2023-05-12T00:48:22.647Z,78.58
2023-05-12T00:51:46.539Z,78.18
2023-05-12T00:55:11.475Z,78.01
2023-05-12T00:58:35.296Z,78.30
2023-05-12T01:01:59.711Z,77.29
2023-05-12T01:05:21.490Z,77.35
2023-05-12T01:08:43.983Z,77.78
2023-05-12T01:12:05.796Z,77.48
2023-05-12T01:15:30.523Z,77.90
2023-05-12T01:18:56.431Z,77.95
2023-05-12T01:22:18.769Z,78.46
2023-05-12T01:25:43.822Z,79.77
2023-05-12T01:29:09.094Z,78.24
2023-05-12T01:32:33.532Z,76.79
2023-05-12T01:35:59.906Z,77.83
2023-05-12T01:39:21.471Z,79.57
2023-05-12T01:42:45.520Z,78.62
2023-05-12T01:46:07.180Z,79.68
2023-05-12T01:49:28.768Z,79.92
2023-05-12T01:52:52.688Z,78.88
2023-05-12T01:56:14.291Z,79.79
2023-05-12T01:59:36.203Z,81.59
2023-05-12T02:02:58.107Z,80.94
2023-05-12T02:06:19.848Z,80.03
2023-05-12T02:09:46.247Z,80.52
2023-05-12T02:13:08.745Z,81.70
2023-05-12T02:16:30.385Z,81.04
2023-05-12T02:19:54.706Z,81.11
2023-05-12T02:23:21.014Z,81.43
2023-05-12T02:26:42.823Z,82.46
2023-05-12T02:30:07.428Z,82.06
2023-05-12T02:33:31.411Z,81.68
2023-05-12T02:36:53.003Z,80.30
2023-05-12T02:40:17.134Z,81.74
2023-05-12T02:43:38.819Z,82.52
2023-05-12T02:47:00.492Z,83.23
2023-05-12T02:50:24.139Z,82.50
2023-05-12T02:53:48.478Z,82.96
2023-05-12T02:57:15.041Z,82.76
2023-05-12T03:00:36.620Z,82.73
2023-05-12T03:03:58.257Z,81.65
2023-05-12T03:07:22.174Z,81.99
2023-05-12T03:10:46.213Z,82.27
2023-05-12T03:14:07.854Z,82.73
2023-05-12T03:17:29.496Z,83.23
2023-05-12T03:20:51.290Z,83.10
2023-05-12T03:24:15.338Z,82.53
2023-05-12T03:27:37.757Z,82.00
2023-05-12T03:30:59.360Z,82.32
2023-05-12T03:34:23.337Z,81.79
2023-05-12T03:37:44.965Z,81.79
2023-05-12T03:41:07.197Z,83.85
2023-05-12T03:44:31.097Z,82.73
2023-05-12T03:47:55.028Z,82.53
2023-05-12T03:51:18.859Z,84.00
2023-05-12T03:54:42.790Z,84.24
2023-05-12T03:58:07.575Z,84.07
2023-05-12T04:01:29.163Z,84.39
2023-05-12T04:04:50.757Z,83.44
2023-05-12T04:08:14.683Z,83.06
2023-05-12T04:11:38.995Z,81.57
2023-05-12T04:15:00.697Z,81.93
2023-05-12T04:18:22.467Z,81.86
2023-05-12T04:21:44.133Z,81.26
2023-05-12T04:25:06.085Z,81.73
2023-05-12T04:28:29.968Z,81.79
2023-05-12T04:31:51.571Z,80.72
2023-05-12T04:35:15.731Z,81.35
2023-05-12T04:38:37.322Z,82.68
2023-05-12T04:42:03.675Z,83.02
2023-05-12T04:45:27.737Z,81.80
2023-05-12T04:48:51.399Z,81.60
2023-05-12T04:52:12.959Z,81.71
2023-05-12T04:55:39.170Z,82.80
2023-05-12T04:59:06.318Z,82.31
2023-05-12T05:02:30.240Z,83.04
2023-05-12T05:05:54.913Z,81.93
2023-05-12T05:09:18.676Z,80.99
2023-05-12T05:12:42.554Z,81.50
2023-05-12T05:16:04.466Z,82.45
2023-05-12T05:19:40.372Z,82.56
2023-05-12T05:23:09.302Z,82.37
2023-05-12T05:26:31.171Z,82.91
2023-05-12T05:29:55.203Z,83.98
2023-05-12T05:33:19.770Z,81.97
2023-05-12T05:36:41.436Z,81.47
2023-05-12T05:40:03.704Z,81.10
2023-05-12T05:43:25.400Z,81.50
2023-05-12T05:46:50.602Z,80.25
2023-05-12T05:50:12.753Z,80.59
2023-05-12T05:53:37.132Z,81.12
2023-05-12T05:57:02.297Z,80.84
2023-05-12T06:00:26.075Z,80.18
2023-05-12T06:03:47.900Z,80.51
2023-05-12T06:07:16.825Z,80.05
2023-05-12T06:10:38.527Z,81.49
2023-05-12T06:14:00.141Z,82.18
2023-05-12T06:17:22.074Z,82.08
2023-05-12T06:20:44.049Z,80.98
2023-05-12T06:24:05.891Z,82.99
2023-05-12T06:27:31.971Z,80.67
2023-05-12T06:30:53.599Z,80.52
2023-05-12T06:34:15.237Z,80.74
2023-05-12T06:37:39.371Z,81.79
2023-05-12T06:41:00.957Z,83.90
2023-05-12T06:44:22.622Z,80.80
2023-05-12T06:47:46.804Z,80.28
2023-05-12T06:51:08.704Z,81.77
2023-05-12T06:54:30.301Z,82.37
2023-05-12T06:57:55.724Z,81.53
2023-05-12T07:01:17.543Z,81.84
2023-05-12T07:04:39.176Z,80.48
2023-05-12T07:08:00.926Z,79.86
2023-05-12T07:11:25.836Z,79.79
2023-05-12T07:14:47.430Z,79.80
2023-05-12T07:18:11.306Z,79.68
2023-05-12T07:21:32.977Z,79.05
2023-05-12T07:24:54.928Z,78.03
2023-05-12T07:28:18.886Z,79.39
2023-05-12T07:31:40.806Z,79.15
2023-05-12T07:35:03.632Z,77.67
2023-05-12T07:38:25.445Z,78.76
2023-05-12T07:41:47.078Z,78.90
2023-05-12T07:45:08.894Z,77.61
2023-05-12T07:48:30.806Z,79.58
2023-05-12T07:51:54.614Z,79.35
2023-05-12T07:55:17.374Z,76.96
2023-05-12T07:58:39.102Z,78.66
2023-05-12T08:02:00.823Z,76.43
2023-05-12T08:05:22.726Z,75.15
2023-05-12T08:08:44.659Z,75.42
2023-05-12T08:12:06.278Z,75.09
2023-05-12T08:15:27.888Z,75.92
2023-05-12T08:18:49.710Z,77.22
2023-05-12T08:22:11.411Z,78.14
2023-05-12T08:25:35.245Z,77.73
2023-05-12T08:28:58.834Z,78.34
2023-05-12T08:32:22.681Z,77.11
2023-05-12T08:35:44.313Z,76.82
2023-05-12T08:39:08.738Z,78.24
2023-05-12T08:42:51.149Z,78.30
2023-05-12T08:46:13.272Z,78.51
2023-05-12T08:49:36.660Z,78.19
2023-05-12T08:52:59.197Z,78.88
2023-05-12T08:59:50.230Z,77.70
2023-05-12T09:03:17.172Z,76.25
2023-05-12T09:06:38.831Z,76.70
2023-05-12T09:10:02.201Z,76.18
2023-05-12T09:13:47.213Z,76.46
2023-05-12T09:17:12.710Z,78.35
2023-05-12T09:20:37.083Z,78.98
2023-05-12T09:24:09.542Z,77.26
2023-05-12T09:27:31.543Z,78.31
2023-05-12T09:30:53.174Z,78.54
2023-05-12T09:34:14.819Z,79.15
2023-05-12T09:37:36.851Z,80.16
2023-05-12T09:40:58.464Z,81.54
2023-05-12T09:44:23.251Z,81.34
2023-05-12T09:47:45.650Z,80.82
2023-05-12T09:51:10.883Z,81.99
2023-05-12T09:54:36.502Z,81.98
2023-05-12T09:57:59.069Z,80.94
2023-05-12T10:01:24.254Z,81.73
2023-05-12T10:04:56.822Z,84.28
2023-05-12T10:08:29.309Z,83.22
2023-05-12T10:11:53.812Z,84.10
2023-05-12T10:15:17.580Z,83.75
2023-05-12T10:18:44.446Z,82.91
2023-05-12T10:22:13.557Z,85.24
2023-05-12T10:25:35.367Z,85.09
2023-05-12T10:28:58.292Z,84.55
2023-05-12T10:32:20.041Z,86.51
2023-05-12T10:35:43.931Z,88.01
2023-05-12T10:39:06.382Z,87.24
2023-05-12T10:42:28.001Z,87.15
2023-05-12T10:46:12.080Z,86.50
2023-05-12T10:49:39.129Z,86.80
2023-05-12T10:53:03.215Z,85.74
2023-05-12T10:56:28.382Z,84.78
2023-05-12T10:59:53.560Z,85.83
2023-05-12T11:03:18.670Z,85.60
2023-05-12T11:06:43.092Z,86.10
2023-05-12T11:10:06.080Z,85.46
2023-05-12T11:13:29.380Z,86.18
2023-05-12T11:16:50.973Z,85.88
2023-05-12T11:20:26.439Z,86.51
2023-05-12T11:23:51.123Z,86.63
2023-05-12T11:27:17.514Z,86.65
2023-05-12T11:30:49.426Z,86.57
2023-05-12T11:34:13.652Z,85.24
2023-05-12T11:37:42.524Z,85.14
2023-05-12T11:41:06.410Z,86.00
2023-05-12T11:44:30.868Z,85.06
2023-05-12T11:48:05.540Z,84.93
2023-05-12T11:51:27.554Z,84.89
2023-05-12T11:55:00.134Z,84.47
2023-05-12T11:58:30.648Z,86.18
2023-05-12T12:01:52.405Z,85.28
2023-05-12T12:05:21.314Z,85.36
2023-05-12T12:08:59.558Z,84.85
2023-05-12T12:12:21.374Z,83.66
2023-05-12T12:15:43.018Z,84.67
2023-05-12T12:19:04.814Z,83.12
2023-05-12T12:22:26.964Z,83.34
2023-05-12T12:25:51.051Z,83.51
2023-05-12T12:29:12.877Z,84.19
2023-05-12T12:32:34.650Z,84.00
2023-05-12T12:35:56.464Z,85.32
2023-05-12T12:39:19.972Z,84.69
2023-05-12T12:42:44.482Z,85.89
2023-05-12T12:46:06.154Z,84.79
2023-05-12T12:49:28.352Z,85.54
2023-05-12T12:52:50.009Z,84.01
2023-05-12T12:56:12.084Z,86.01
2023-05-12T12:59:33.793Z,85.43
2023-05-12T13:02:56.052Z,84.70
2023-05-12T13:06:18.437Z,85.18
2023-05-12T13:09:40.037Z,85.56
2023-05-12T13:13:01.817Z,84.65
2023-05-12T13:16:23.613Z,85.87
2023-05-12T13:19:47.508Z,84.67
2023-05-12T13:23:09.090Z,84.51
2023-05-12T13:26:33.345Z,84.78
2023-05-12T13:29:57.937Z,84.89
2023-05-12T13:33:23.063Z,85.23
2023-05-12T13:36:44.666Z,85.04
2023-05-12T13:40:09.915Z,84.62
2023-05-12T13:43:31.580Z,85.15
2023-05-12T13:46:53.745Z,85.26
2023-05-12T13:50:15.486Z,85.87
2023-05-12T13:53:39.147Z,87.14
2023-05-12T13:57:03.785Z,86.60
2023-05-12T14:00:27.242Z,87.28
2023-05-12T14:03:51.190Z,85.96
2023-05-12T14:07:12.905Z,86.89
2023-05-12T14:10:35.424Z,85.75
2023-05-12T14:14:03.548Z,86.56
2023-05-12T14:17:27.701Z,86.12
2023-05-12T14:20:51.520Z,87.10
2023-05-12T14:24:13.109Z,85.86
2023-05-12T14:27:35.440Z,85.28
2023-05-12T14:30:57.052Z,85.83
2023-05-12T14:34:19.928Z,86.38
2023-05-12T14:37:43.959Z,86.78
2023-05-12T14:41:07.748Z,86.60
2023-05-12T14:44:29.338Z,89.64
2023-05-12T14:47:51.048Z,83.17
2023-05-12T14:51:14.956Z,83.38
2023-05-12T14:54:39.543Z,83.07
2023-05-12T14:58:01.129Z,83.71
2023-05-12T15:01:22.825Z,83.34
2023-05-12T15:04:44.460Z,84.40
2023-05-12T15:08:06.235Z,85.30
2023-05-12T15:11:27.854Z,85.24
2023-05-12T15:14:49.535Z,84.62
2023-05-12T15:18:13.675Z,88.07
2023-05-12T15:21:36.766Z,84.11
2023-05-12T15:25:01.494Z,84.90
2023-05-12T15:28:23.172Z,84.46
2023-05-12T15:31:48.905Z,84.74
2023-05-12T15:35:13.113Z,84.98
2023-05-12T15:38:37.620Z,85.44
2023-05-12T15:42:03.984Z,86.58
2023-05-12T15:45:29.265Z,85.50
2023-05-12T15:48:50.929Z,86.33
2023-05-12T15:52:12.677Z,86.18
2023-05-12T15:55:36.586Z,86.13
2023-05-12T15:58:58.134Z,85.19
2023-05-12T16:02:19.719Z,84.91
2023-05-12T16:05:43.781Z,85.06
2023-05-12T16:09:05.462Z,85.31
2023-05-12T16:12:27.174Z,84.77
2023-05-12T16:15:51.836Z,85.28
2023-05-12T16:19:15.762Z,84.40
2023-05-12T16:22:42.213Z,84.77
2023-05-12T16:26:03.873Z,84.39
2023-05-12T16:29:31.406Z,84.62
2023-05-12T16:32:53.095Z,84.67
2023-05-12T16:36:17.856Z,85.11
2023-05-12T16:39:42.725Z,85.29
2023-05-12T16:43:04.332Z,86.00
2023-05-12T16:46:28.330Z,85.71
2023-05-12T16:49:57.818Z,86.29
2023-05-12T16:53:19.529Z,86.36
2023-05-12T16:56:43.431Z,87.11
2023-05-12T17:00:06.070Z,87.11
2023-05-12T17:03:28.950Z,86.75
2023-05-12T17:06:50.765Z,85.91
2023-05-12T17:10:12.379Z,86.05
2023-05-12T17:13:41.870Z,87.08
2023-05-12T17:17:06.002Z,86.95
2023-05-12T17:20:29.999Z,86.48
2023-05-12T17:23:51.770Z,87.02
2023-05-12T17:27:13.492Z,86.54
2023-05-12T17:30:35.180Z,86.32
2023-05-12T17:33:56.960Z,87.00
2023-05-12T17:37:21.109Z,87.28
2023-05-12T17:40:43.156Z,87.15
2023-05-12T17:44:04.952Z,87.32
2023-05-12T17:47:26.870Z,88.22
2023-05-12T17:50:50.769Z,88.76
2023-05-12T17:54:14.581Z,87.87
2023-05-12T17:57:38.614Z,87.45
2023-05-12T18:01:00.900Z,87.90
2023-05-12T18:04:23.242Z,88.28
2023-05-12T18:07:44.917Z,87.35
2023-05-12T18:11:08.573Z,87.52
2023-05-12T18:14:30.614Z,86.98
2023-05-12T18:17:54.476Z,86.55
2023-05-12T18:21:18.353Z,86.89
2023-05-12T18:24:39.937Z,86.70
2023-05-12T18:28:01.521Z,87.01
2023-05-12T18:31:23.348Z,87.56
2023-05-12T18:34:47.232Z,87.77
2023-05-12T18:38:09.130Z,87.78
2023-05-12T18:41:32.938Z,87.48
2023-05-12T18:44:54.710Z,87.05
2023-05-12T18:48:16.306Z,87.70
2023-05-12T18:51:38.155Z,87.04
2023-05-12T18:54:59.805Z,87.26
2023-05-12T18:58:21.456Z,88.08
2023-05-12T19:01:43.349Z,87.70
2023-05-12T19:05:05.394Z,87.96
2023-05-12T19:08:31.520Z,88.63
2023-05-12T19:11:53.149Z,88.37
2023-05-12T19:15:16.915Z,88.04
2023-05-12T19:18:38.512Z,88.33
2023-05-12T19:22:04.391Z,88.00
2023-05-12T19:25:28.909Z,88.56
2023-05-12T19:28:50.517Z,88.36
2023-05-12T19:32:16.206Z,88.69
2023-05-12T19:35:40.266Z,89.11
2023-05-12T19:39:04.979Z,88.47
2023-05-12T19:42:27.649Z,88.65
2023-05-12T19:45:49.587Z,89.01
2023-05-12T19:49:14.186Z,89.31
2023-05-12T19:52:36.344Z,89.04
2023-05-12T19:56:00.437Z,89.00
2023-05-12T19:59:24.536Z,89.67
2023-05-12T20:02:46.320Z,89.41
2023-05-12T20:06:07.984Z,89.13
2023-05-12T20:09:29.605Z,89.21
2023-05-12T20:12:51.798Z,89.29
2023-05-12T20:16:13.482Z,89.20
2023-05-12T20:19:38.275Z,89.61
2023-05-12T20:22:59.827Z,89.34
2023-05-12T20:26:21.396Z,90.11
2023-05-12T20:29:42.995Z,99.92
2023-05-12T20:33:07.083Z,95.70
2023-05-12T20:36:31.140Z,90.99
2023-05-12T20:39:54.126Z,88.03
2023-05-12T20:43:15.797Z,88.19
2023-05-12T20:46:38.688Z,87.33
2023-05-12T20:50:05.462Z,82.79
2023-05-12T20:53:27.112Z,83.87
2023-05-12T20:56:48.721Z,84.90
2023-05-12T21:00:11.461Z,85.43
2023-05-12T21:03:33.848Z,86.30
2023-05-12T21:06:55.483Z,86.83
2023-05-12T21:10:20.387Z,87.07
2023-05-12T21:13:42.733Z,87.57
2023-05-12T21:17:04.392Z,88.76
2023-05-12T21:20:26.064Z,87.80
2023-05-12T21:23:47.645Z,87.57
2023-05-12T21:27:09.539Z,88.19
2023-05-12T21:30:33.398Z,88.07
2023-05-12T21:33:55.074Z,88.07
2023-05-12T21:37:19.146Z,88.45
2023-05-12T21:40:41.099Z,89.05
2023-05-12T21:44:04.910Z,88.83
2023-05-12T21:47:26.604Z,88.35
2023-05-12T21:50:57.878Z,88.83
2023-05-12T21:54:19.462Z,89.61
2023-05-12T21:57:42.031Z,89.56
2023-05-12T22:01:03.672Z,89.81
2023-05-12T22:04:27.716Z,90.16
2023-05-12T22:07:52.306Z,90.21
2023-05-12T22:11:13.932Z,89.35
2023-05-12T22:14:38.505Z,89.30
2023-05-12T22:18:00.753Z,89.79
2023-05-12T22:21:22.546Z,89.55
2023-05-12T22:24:44.118Z,89.15
2023-05-12T22:28:08.525Z,89.41
2023-05-12T22:31:32.517Z,88.52
2023-05-12T22:34:54.898Z,88.88
2023-05-12T22:38:16.464Z,88.29
2023-05-12T22:41:38.408Z,87.88
2023-05-12T22:45:02.618Z,87.83
2023-05-12T22:48:27.200Z,87.90
2023-05-12T22:51:51.330Z,87.91
2023-05-12T22:55:17.484Z,88.38
2023-05-12T22:58:41.525Z,88.34
2023-05-12T23:02:03.088Z,88.05
2023-05-12T23:05:27.168Z,88.19
2023-05-12T23:08:49.315Z,88.49
2023-05-12T23:12:13.026Z,88.83
2023-05-12T23:15:39.429Z,88.75
2023-05-12T23:19:01.114Z,89.35
2023-05-12T23:22:22.701Z,88.48
2023-05-12T23:25:44.284Z,88.05
2023-05-12T23:29:10.507Z,87.64
2023-05-12T23:32:32.366Z,87.80
2023-05-12T23:35:54.101Z,87.95
2023-05-12T23:39:15.772Z,88.33
2023-05-12T23:42:40.641Z,88.35
2023-05-12T23:46:06.977Z,87.98
2023-05-12T23:49:28.639Z,87.61
2023-05-12T23:52:53.478Z,87.77
2023-05-12T23:56:18.198Z,87.26
2023-05-12T23:59:39.805Z,87.15
